Jazz DH8A at Sydney on Jun 19th 2012, continued final approach during runway incursion

Last Update: July 6, 2012 / 22:15:57 GMT/Zulu time

Bookmark this article
Incident Facts

Date of incident
Jun 19, 2012

Classification
Incident

Flight number
QK-8806

Destination
Sydney, Canada

Aircraft Registration
C-FABT

ICAO Type Designator
DH8A

A Jazz de Havilland Dash 8-100, registration C-FABT performing flight QK-8806 from Halifax,NS to Sydney,NS (Canada), was on final approach to Sydney's runway 07.

The driver of an airport vehicle requested and was cleaed to proceed on taxiway H to the threshold runway 01, which involved crossing runway 07. The vehicle proceeded across runway 07.

The crew of the Dash 8 observed the vehicle crossing the runway and continued the landing.

NAV Canada reported the vehicle received clearance to proceed along taxiway H to the threshold of runway 01 (no mention of a clearance to cross runway 07). The Dash had already crossed the final approach fix in IMC while on an ILS approach to runway 07.

The Canadian TSB reported the approved routing for the vehicle included crossing runway 07. The crew observed the vehicle crossing the runway, continued the approach and continued the landing when it was assured that no conflict existed anymore. NAV Canada (ATC service provider) is conducting an internal investigation for an operational irregularity.

Metars:
CYQY 191300Z 17003KT 15SM FEW012 SCT240 12/07 A3019 RMK SC2CI1 SLP224
CYQY 191200Z 10002KT 15SM BKN009 09/07 A3021 RMK SC6 SLP230
CYQY 191100Z 19004KT 12SM OVC007 08/06 A3021 RMK SC8 SLP232
CYQY 191000Z 21003KT 3SM BR OVC004 07/06 A3019 RMK ST8 SLP226
CYQY 190900Z 20004KT 1 1/4SM BR OVC002 07/06 A3018 RMK ST8 SLP220
CYQY 190800Z 22005KT 2 1/2SM BR OVC003 07/06 A3017 RMK ST8 SLP219
Aircraft Registration Data New!
Registration mark
C-FABT
Country of Registration
Canada
Date of Registration
JdAnjdbAlkeehggkl Subscribe to unlock
Certification Basis
Ml feknflfnAkgdbmq nndbdkmlfbmelcn icpdecgjhfi Subscribe to unlock
TCDS Ident. No.
Manufacturer
Dehavilland
Aircraft Model / Type
DHC-8-102
ICAO Aircraft Type
DH8A
Year of Manufacture
Serial Number
Aircraft Address / Mode S Code (HEX)
Maximum Take off Mass (MTOM) [kg]
Engine Count
Engine Type
Main Owner
DbknkikfdlhnAi cjgljemneiqcbecqqbhphqilfmdkccAbApcfmnkcgdAfjeeejfpd d bidjpmpjlgpliceAq jcckhkc edigfde dllmddggp Subscribe to unlock

Aircraft registration data reproduced and distributed with the permission of the Government of Canada.

Incident Facts

Date of incident
Jun 19, 2012

Classification
Incident

Flight number
QK-8806

Destination
Sydney, Canada

Aircraft Registration
C-FABT

ICAO Type Designator
DH8A

This article is published under license from Avherald.com. © of text by Avherald.com.
Article source

You can read 4 more free articles without a subscription.

Subscribe now and continue reading without any limits!

Are you a subscriber?
Login
Subscribe

Read unlimited articles and receive our daily update briefing. Gain better insights into what is happening in commercial aviation safety.

Free newsletter

Want to know more and stay ahead? Get our free weekly newsletter and join 4941 existing subscribers.

By subscribing, you accept our terms and conditions and confirm that you've read our privacy policy.

Send tip

Support AeroInside by sending a small tip amount.

Related articles

Newest articles

Subscribe today

Are you researching aviation incidents? Get access to AeroInside Insights, unlimited read access and receive the daily newsletter.

Pick your plan and subscribe

Partner

Blockaviation logo

A new way to document and demonstrate airworthiness compliance and aircraft value. Find out more.

Virtual Speech logo

ELITE Simulation Solutions is a leading global provider of Flight Simulation Training Devices, IFR training software as well as flight controls and related services. Find out more.

Get updates

Never miss an article from AeroInside. Subscribe to our free weekly newsletter and join 4941 existing subscribers.

By subscribing, you accept our terms and conditions and that you've read our privacy policy.

AeroInside Blog
Popular aircraft
Airbus A320
Boeing 737-800
Boeing 737-800 MAX
Popular airlines
American Airlines
United
Delta
Air Canada
Lufthansa
British Airways